sensor_id;sensor_type;location;lat;lon;timestamp;P1;durP1;ratioP1;P2;durP2;ratioP2
84725;SDS011;74945;43.124;0.104;2023-12-29T00:01:19;2.22;;;1.40;;
84725;SDS011;74945;43.124;0.104;2023-12-29T00:03:45;2.38;;;1.40;;
84725;SDS011;74945;43.124;0.104;2023-12-29T00:06:10;2.65;;;1.58;;
84725;SDS011;74945;43.124;0.104;2023-12-29T00:08:38;2.20;;;1.50;;
84725;SDS011;74945;43.124;0.104;2023-12-29T00:11:03;1.52;;;1.40;;
84725;SDS011;74945;43.124;0.104;2023-12-29T00:13:29;2.53;;;1.50;;
84725;SDS011;74945;43.124;0.104;2023-12-29T00:15:55;1.60;;;1.20;;
84725;SDS011;74945;43.124;0.104;2023-12-29T00:18:21;2.38;;;1.27;;
84725;SDS011;74945;43.124;0.104;2023-12-29T00:20:47;2.63;;;1.42;;
84725;SDS011;74945;43.124;0.104;2023-12-29T00:23:12;2.00;;;1.67;;
84725;SDS011;74945;43.124;0.104;2023-12-29T00:25:38;2.92;;;1.50;;
84725;SDS011;74945;43.124;0.104;2023-12-29T00:28:06;1.40;;;1.30;;
84725;SDS011;74945;43.124;0.104;2023-12-29T00:30:32;1.73;;;1.60;;
84725;SDS011;74945;43.124;0.104;2023-12-29T00:32:57;1.60;;;1.50;;
84725;SDS011;74945;43.124;0.104;2023-12-29T00:35:23;1.73;;;1.63;;
84725;SDS011;74945;43.124;0.104;2023-12-29T00:37:51;1.45;;;1.35;;
84725;SDS011;74945;43.124;0.104;2023-12-29T00:40:17;1.77;;;1.58;;
84725;SDS011;74945;43.124;0.104;2023-12-29T00:42:42;2.97;;;1.55;;
84725;SDS011;74945;43.124;0.104;2023-12-29T00:45:07;1.42;;;1.30;;
84725;SDS011;74945;43.124;0.104;2023-12-29T00:47:33;2.55;;;1.33;;
84725;SDS011;74945;43.124;0.104;2023-12-29T00:50:00;1.45;;;1.35;;
84725;SDS011;74945;43.124;0.104;2023-12-29T00:52:25;2.10;;;1.40;;
84725;SDS011;74945;43.124;0.104;2023-12-29T00:54:51;1.20;;;1.10;;
84725;SDS011;74945;43.124;0.104;2023-12-29T00:57:16;1.73;;;1.30;;
84725;SDS011;74945;43.124;0.104;2023-12-29T00:59:42;2.22;;;1.30;;
84725;SDS011;74945;43.124;0.104;2023-12-29T01:02:09;1.45;;;1.33;;
84725;SDS011;74945;43.124;0.104;2023-12-29T01:04:36;1.50;;;1.30;;
84725;SDS011;74945;43.124;0.104;2023-12-29T01:07:02;2.17;;;1.50;;
84725;SDS011;74945;43.124;0.104;2023-12-29T01:09:28;1.27;;;1.17;;
84725;SDS011;74945;43.124;0.104;2023-12-29T01:11:53;1.58;;;1.33;;
84725;SDS011;74945;43.124;0.104;2023-12-29T01:14:19;1.88;;;1.00;;
84725;SDS011;74945;43.124;0.104;2023-12-29T01:16:44;2.75;;;1.25;;
84725;SDS011;74945;43.124;0.104;2023-12-29T01:19:10;1.40;;;1.30;;
84725;SDS011;74945;43.124;0.104;2023-12-29T01:21:37;1.50;;;1.40;;
84725;SDS011;74945;43.124;0.104;2023-12-29T01:24:03;2.15;;;1.30;;
84725;SDS011;74945;43.124;0.104;2023-12-29T01:26:36;2.30;;;1.50;;
84725;SDS011;74945;43.124;0.104;2023-12-29T01:29:02;1.27;;;1.17;;
84725;SDS011;74945;43.124;0.104;2023-12-29T01:31:31;2.28;;;1.20;;
84725;SDS011;74945;43.124;0.104;2023-12-29T01:33:57;1.52;;;1.35;;
84725;SDS011;74945;43.124;0.104;2023-12-29T01:36:22;1.40;;;1.23;;
84725;SDS011;74945;43.124;0.104;2023-12-29T01:38:48;2.60;;;1.30;;
84725;SDS011;74945;43.124;0.104;2023-12-29T01:41:13;2.33;;;1.48;;
84725;SDS011;74945;43.124;0.104;2023-12-29T01:46:23;2.00;;;1.30;;
84725;SDS011;74945;43.124;0.104;2023-12-29T01:48:49;1.67;;;1.30;;
84725;SDS011;74945;43.124;0.104;2023-12-29T01:51:15;1.38;;;1.27;;
84725;SDS011;74945;43.124;0.104;2023-12-29T01:53:41;1.20;;;1.10;;
84725;SDS011;74945;43.124;0.104;2023-12-29T01:56:06;1.13;;;1.02;;
84725;SDS011;74945;43.124;0.104;2023-12-29T01:58:32;1.30;;;1.20;;
84725;SDS011;74945;43.124;0.104;2023-12-29T02:00:57;1.60;;;1.50;;
84725;SDS011;74945;43.124;0.104;2023-12-29T02:03:23;1.50;;;1.20;;
84725;SDS011;74945;43.124;0.104;2023-12-29T02:05:49;1.40;;;1.30;;
84725;SDS011;74945;43.124;0.104;2023-12-29T02:08:15;1.10;;;1.10;;
84725;SDS011;74945;43.124;0.104;2023-12-29T02:10:40;1.10;;;1.00;;
84725;SDS011;74945;43.124;0.104;2023-12-29T02:13:06;1.20;;;1.10;;
84725;SDS011;74945;43.124;0.104;2023-12-29T02:15:31;1.30;;;1.20;;
84725;SDS011;74945;43.124;0.104;2023-12-29T02:17:59;1.50;;;1.40;;
84725;SDS011;74945;43.124;0.104;2023-12-29T02:20:26;1.25;;;1.15;;
84725;SDS011;74945;43.124;0.104;2023-12-29T02:22:51;1.35;;;1.25;;
84725;SDS011;74945;43.124;0.104;2023-12-29T02:25:17;1.40;;;1.30;;
84725;SDS011;74945;43.124;0.104;2023-12-29T02:27:57;1.45;;;1.30;;
84725;SDS011;74945;43.124;0.104;2023-12-29T02:33:13;1.50;;;1.30;;
84725;SDS011;74945;43.124;0.104;2023-12-29T02:35:41;2.17;;;1.00;;
84725;SDS011;74945;43.124;0.104;2023-12-29T02:38:07;2.17;;;1.20;;
84725;SDS011;74945;43.124;0.104;2023-12-29T02:40:33;1.25;;;1.05;;
84725;SDS011;74945;43.124;0.104;2023-12-29T02:42:59;1.40;;;1.30;;
84725;SDS011;74945;43.124;0.104;2023-12-29T02:45:24;1.33;;;1.10;;
84725;SDS011;74945;43.124;0.104;2023-12-29T02:47:49;1.40;;;1.30;;
84725;SDS011;74945;43.124;0.104;2023-12-29T02:50:15;1.10;;;1.00;;
84725;SDS011;74945;43.124;0.104;2023-12-29T02:52:41;1.30;;;1.20;;
84725;SDS011;74945;43.124;0.104;2023-12-29T02:55:06;1.30;;;1.20;;
84725;SDS011;74945;43.124;0.104;2023-12-29T02:57:32;1.10;;;1.00;;
84725;SDS011;74945;43.124;0.104;2023-12-29T02:59:57;1.33;;;1.23;;
84725;SDS011;74945;43.124;0.104;2023-12-29T03:02:23;1.30;;;1.20;;
84725;SDS011;74945;43.124;0.104;2023-12-29T03:04:49;1.30;;;1.20;;
84725;SDS011;74945;43.124;0.104;2023-12-29T03:07:14;1.30;;;1.20;;
84725;SDS011;74945;43.124;0.104;2023-12-29T03:09:39;1.30;;;1.20;;
84725;SDS011;74945;43.124;0.104;2023-12-29T03:12:05;1.40;;;1.13;;
84725;SDS011;74945;43.124;0.104;2023-12-29T03:14:31;1.30;;;1.20;;
84725;SDS011;74945;43.124;0.104;2023-12-29T03:16:56;1.00;;;1.00;;
84725;SDS011;74945;43.124;0.104;2023-12-29T03:19:22;1.65;;;1.00;;
84725;SDS011;74945;43.124;0.104;2023-12-29T03:21:48;1.15;;;1.05;;
84725;SDS011;74945;43.124;0.104;2023-12-29T03:24:13;1.15;;;1.00;;
84725;SDS011;74945;43.124;0.104;2023-12-29T03:26:38;1.00;;;1.00;;
84725;SDS011;74945;43.124;0.104;2023-12-29T03:29:04;1.00;;;1.00;;
84725;SDS011;74945;43.124;0.104;2023-12-29T03:31:29;2.42;;;0.90;;
84725;SDS011;74945;43.124;0.104;2023-12-29T03:33:55;0.98;;;0.98;;
84725;SDS011;74945;43.124;0.104;2023-12-29T03:36:20;1.30;;;1.20;;
84725;SDS011;74945;43.124;0.104;2023-12-29T03:38:45;1.83;;;1.20;;
84725;SDS011;74945;43.124;0.104;2023-12-29T03:41:11;0.90;;;0.90;;
84725;SDS011;74945;43.124;0.104;2023-12-29T03:43:36;0.90;;;0.90;;
84725;SDS011;74945;43.124;0.104;2023-12-29T03:46:01;1.05;;;0.95;;
84725;SDS011;74945;43.124;0.104;2023-12-29T03:48:27;1.08;;;0.98;;
84725;SDS011;74945;43.124;0.104;2023-12-29T03:50:52;1.15;;;1.05;;
84725;SDS011;74945;43.124;0.104;2023-12-29T03:53:18;0.90;;;0.90;;
84725;SDS011;74945;43.124;0.104;2023-12-29T03:55:44;1.17;;;1.08;;
84725;SDS011;74945;43.124;0.104;2023-12-29T03:58:10;1.08;;;1.00;;
84725;SDS011;74945;43.124;0.104;2023-12-29T04:00:36;0.90;;;0.90;;
84725;SDS011;74945;43.124;0.104;2023-12-29T04:03:01;1.20;;;1.10;;
84725;SDS011;74945;43.124;0.104;2023-12-29T04:05:27;1.00;;;1.00;;
84725;SDS011;74945;43.124;0.104;2023-12-29T04:07:52;0.80;;;0.80;;
84725;SDS011;74945;43.124;0.104;2023-12-29T04:10:17;1.27;;;1.17;;
84725;SDS011;74945;43.124;0.104;2023-12-29T04:12:43;0.90;;;0.90;;
84725;SDS011;74945;43.124;0.104;2023-12-29T04:15:08;1.10;;;1.00;;
84725;SDS011;74945;43.124;0.104;2023-12-29T04:17:34;0.90;;;0.90;;
84725;SDS011;74945;43.124;0.104;2023-12-29T04:19:59;0.90;;;0.90;;
84725;SDS011;74945;43.124;0.104;2023-12-29T04:22:25;1.05;;;1.00;;
84725;SDS011;74945;43.124;0.104;2023-12-29T04:24:50;0.80;;;0.80;;
84725;SDS011;74945;43.124;0.104;2023-12-29T04:27:16;1.10;;;1.00;;
84725;SDS011;74945;43.124;0.104;2023-12-29T04:29:43;1.10;;;1.00;;
84725;SDS011;74945;43.124;0.104;2023-12-29T04:32:09;1.17;;;1.08;;
84725;SDS011;74945;43.124;0.104;2023-12-29T04:34:34;1.00;;;1.00;;
84725;SDS011;74945;43.124;0.104;2023-12-29T04:36:59;1.20;;;1.08;;
84725;SDS011;74945;43.124;0.104;2023-12-29T04:39:25;0.90;;;0.90;;
84725;SDS011;74945;43.124;0.104;2023-12-29T04:41:50;1.08;;;1.00;;
84725;SDS011;74945;43.124;0.104;2023-12-29T04:44:16;1.08;;;1.00;;
84725;SDS011;74945;43.124;0.104;2023-12-29T04:46:41;1.40;;;1.00;;
84725;SDS011;74945;43.124;0.104;2023-12-29T04:49:07;1.00;;;0.90;;
84725;SDS011;74945;43.124;0.104;2023-12-29T04:51:32;1.17;;;1.08;;
84725;SDS011;74945;43.124;0.104;2023-12-29T04:53:58;1.05;;;0.98;;
84725;SDS011;74945;43.124;0.104;2023-12-29T04:56:23;0.75;;;0.73;;
84725;SDS011;74945;43.124;0.104;2023-12-29T04:58:50;0.85;;;0.82;;
84725;SDS011;74945;43.124;0.104;2023-12-29T05:01:16;0.88;;;0.88;;
84725;SDS011;74945;43.124;0.104;2023-12-29T05:03:41;0.90;;;0.90;;
84725;SDS011;74945;43.124;0.104;2023-12-29T05:06:07;1.10;;;1.00;;
84725;SDS011;74945;43.124;0.104;2023-12-29T05:08:32;1.05;;;0.98;;
84725;SDS011;74945;43.124;0.104;2023-12-29T05:10:57;4.57;;;0.80;;
84725;SDS011;74945;43.124;0.104;2023-12-29T05:13:23;1.10;;;1.00;;
84725;SDS011;74945;43.124;0.104;2023-12-29T05:15:48;0.98;;;0.90;;
84725;SDS011;74945;43.124;0.104;2023-12-29T05:18:13;1.10;;;1.00;;
84725;SDS011;74945;43.124;0.104;2023-12-29T05:20:39;1.05;;;1.02;;
84725;SDS011;74945;43.124;0.104;2023-12-29T05:23:04;0.80;;;0.80;;
84725;SDS011;74945;43.124;0.104;2023-12-29T05:25:29;0.73;;;0.73;;
84725;SDS011;74945;43.124;0.104;2023-12-29T05:27:55;0.90;;;0.90;;
84725;SDS011;74945;43.124;0.104;2023-12-29T05:30:20;0.80;;;0.80;;
84725;SDS011;74945;43.124;0.104;2023-12-29T05:32:45;1.10;;;1.00;;
84725;SDS011;74945;43.124;0.104;2023-12-29T05:35:11;1.02;;;0.95;;
84725;SDS011;74945;43.124;0.104;2023-12-29T05:37:36;1.00;;;0.95;;
84725;SDS011;74945;43.124;0.104;2023-12-29T05:40:02;1.02;;;0.93;;
84725;SDS011;74945;43.124;0.104;2023-12-29T05:42:27;0.85;;;0.85;;
84725;SDS011;74945;43.124;0.104;2023-12-29T05:44:53;0.90;;;0.90;;
84725;SDS011;74945;43.124;0.104;2023-12-29T05:47:18;1.15;;;0.82;;
84725;SDS011;74945;43.124;0.104;2023-12-29T05:49:43;0.95;;;0.82;;
84725;SDS011;74945;43.124;0.104;2023-12-29T05:52:09;0.85;;;0.80;;
84725;SDS011;74945;43.124;0.104;2023-12-29T05:54:35;0.88;;;0.88;;
84725;SDS011;74945;43.124;0.104;2023-12-29T05:57:00;0.90;;;0.90;;
84725;SDS011;74945;43.124;0.104;2023-12-29T05:59:26;0.88;;;0.88;;
84725;SDS011;74945;43.124;0.104;2023-12-29T06:01:51;1.00;;;0.90;;
84725;SDS011;74945;43.124;0.104;2023-12-29T06:04:17;0.70;;;0.70;;
84725;SDS011;74945;43.124;0.104;2023-12-29T06:06:42;1.45;;;0.70;;
84725;SDS011;74945;43.124;0.104;2023-12-29T06:09:11;1.15;;;0.90;;
84725;SDS011;74945;43.124;0.104;2023-12-29T06:11:36;0.80;;;0.80;;
84725;SDS011;74945;43.124;0.104;2023-12-29T06:14:02;0.88;;;0.88;;
84725;SDS011;74945;43.124;0.104;2023-12-29T06:16:28;0.80;;;0.80;;
84725;SDS011;74945;43.124;0.104;2023-12-29T06:18:55;0.77;;;0.77;;
84725;SDS011;74945;43.124;0.104;2023-12-29T06:21:21;0.90;;;0.88;;
84725;SDS011;74945;43.124;0.104;2023-12-29T06:23:46;0.80;;;0.80;;
84725;SDS011;74945;43.124;0.104;2023-12-29T06:26:15;1.63;;;0.80;;
84725;SDS011;74945;43.124;0.104;2023-12-29T06:28:42;0.95;;;0.90;;
84725;SDS011;74945;43.124;0.104;2023-12-29T06:31:07;1.95;;;0.80;;
84725;SDS011;74945;43.124;0.104;2023-12-29T06:33:32;0.77;;;0.77;;
84725;SDS011;74945;43.124;0.104;2023-12-29T06:35:58;0.88;;;0.80;;
84725;SDS011;74945;43.124;0.104;2023-12-29T06:38:23;1.60;;;1.00;;
84725;SDS011;74945;43.124;0.104;2023-12-29T06:40:49;0.80;;;0.80;;
84725;SDS011;74945;43.124;0.104;2023-12-29T06:43:14;0.77;;;0.70;;
84725;SDS011;74945;43.124;0.104;2023-12-29T06:45:39;0.80;;;0.80;;
84725;SDS011;74945;43.124;0.104;2023-12-29T06:48:05;0.88;;;0.88;;
84725;SDS011;74945;43.124;0.104;2023-12-29T06:50:31;0.90;;;0.90;;
84725;SDS011;74945;43.124;0.104;2023-12-29T06:52:56;1.02;;;0.80;;
84725;SDS011;74945;43.124;0.104;2023-12-29T06:55:21;1.05;;;0.80;;
84725;SDS011;74945;43.124;0.104;2023-12-29T06:57:47;0.82;;;0.82;;
84725;SDS011;74945;43.124;0.104;2023-12-29T07:00:12;1.13;;;1.02;;
84725;SDS011;74945;43.124;0.104;2023-12-29T07:02:38;1.67;;;0.85;;
84725;SDS011;74945;43.124;0.104;2023-12-29T07:05:05;0.60;;;0.60;;
84725;SDS011;74945;43.124;0.104;2023-12-29T07:07:31;0.73;;;0.73;;
84725;SDS011;74945;43.124;0.104;2023-12-29T07:09:56;0.65;;;0.65;;
84725;SDS011;74945;43.124;0.104;2023-12-29T07:12:22;0.80;;;0.80;;
84725;SDS011;74945;43.124;0.104;2023-12-29T07:14:47;0.70;;;0.70;;
84725;SDS011;74945;43.124;0.104;2023-12-29T07:17:13;0.80;;;0.80;;
84725;SDS011;74945;43.124;0.104;2023-12-29T07:19:38;0.80;;;0.80;;
84725;SDS011;74945;43.124;0.104;2023-12-29T07:22:04;0.80;;;0.80;;
84725;SDS011;74945;43.124;0.104;2023-12-29T07:24:31;0.70;;;0.70;;
84725;SDS011;74945;43.124;0.104;2023-12-29T07:26:57;0.80;;;0.80;;
84725;SDS011;74945;43.124;0.104;2023-12-29T07:29:22;0.70;;;0.70;;
84725;SDS011;74945;43.124;0.104;2023-12-29T07:31:48;1.50;;;0.77;;
84725;SDS011;74945;43.124;0.104;2023-12-29T07:34:14;0.73;;;0.73;;
84725;SDS011;74945;43.124;0.104;2023-12-29T07:36:39;0.70;;;0.70;;
84725;SDS011;74945;43.124;0.104;2023-12-29T07:39:05;0.70;;;0.70;;
84725;SDS011;74945;43.124;0.104;2023-12-29T07:41:31;0.73;;;0.73;;
84725;SDS011;74945;43.124;0.104;2023-12-29T07:43:56;0.80;;;0.80;;
84725;SDS011;74945;43.124;0.104;2023-12-29T07:46:25;0.70;;;0.70;;
84725;SDS011;74945;43.124;0.104;2023-12-29T07:48:51;0.60;;;0.60;;
84725;SDS011;74945;43.124;0.104;2023-12-29T07:51:17;0.73;;;0.73;;
84725;SDS011;74945;43.124;0.104;2023-12-29T07:53:43;0.80;;;0.80;;
84725;SDS011;74945;43.124;0.104;2023-12-29T07:56:09;0.80;;;0.80;;
84725;SDS011;74945;43.124;0.104;2023-12-29T07:58:35;0.70;;;0.70;;
84725;SDS011;74945;43.124;0.104;2023-12-29T08:01:00;0.80;;;0.80;;
84725;SDS011;74945;43.124;0.104;2023-12-29T08:03:26;1.65;;;0.80;;
84725;SDS011;74945;43.124;0.104;2023-12-29T08:05:51;0.65;;;0.65;;
84725;SDS011;74945;43.124;0.104;2023-12-29T08:08:17;0.73;;;0.73;;
84725;SDS011;74945;43.124;0.104;2023-12-29T08:10:42;0.70;;;0.70;;
84725;SDS011;74945;43.124;0.104;2023-12-29T08:13:08;2.90;;;1.00;;
84725;SDS011;74945;43.124;0.104;2023-12-29T08:15:34;1.23;;;0.73;;
84725;SDS011;74945;43.124;0.104;2023-12-29T08:18:00;0.95;;;0.90;;
84725;SDS011;74945;43.124;0.104;2023-12-29T08:20:25;1.13;;;0.80;;
84725;SDS011;74945;43.124;0.104;2023-12-29T08:22:51;2.03;;;0.80;;
84725;SDS011;74945;43.124;0.104;2023-12-29T08:25:16;1.25;;;0.85;;
84725;SDS011;74945;43.124;0.104;2023-12-29T08:27:41;1.75;;;0.90;;
84725;SDS011;74945;43.124;0.104;2023-12-29T08:30:07;1.42;;;0.90;;
84725;SDS011;74945;43.124;0.104;2023-12-29T08:32:33;2.15;;;0.80;;
84725;SDS011;74945;43.124;0.104;2023-12-29T08:34:58;1.45;;;0.90;;
84725;SDS011;74945;43.124;0.104;2023-12-29T08:37:24;2.13;;;0.80;;
84725;SDS011;74945;43.124;0.104;2023-12-29T08:39:49;2.55;;;0.90;;
84725;SDS011;74945;43.124;0.104;2023-12-29T08:42:15;6.20;;;1.73;;
84725;SDS011;74945;43.124;0.104;2023-12-29T08:44:41;6.38;;;1.42;;
84725;SDS011;74945;43.124;0.104;2023-12-29T08:47:06;10.32;;;3.35;;
84725;SDS011;74945;43.124;0.104;2023-12-29T08:49:36;10.38;;;2.90;;
84725;SDS011;74945;43.124;0.104;2023-12-29T08:52:02;10.02;;;3.55;;
84725;SDS011;74945;43.124;0.104;2023-12-29T08:54:28;10.02;;;4.40;;
84725;SDS011;74945;43.124;0.104;2023-12-29T08:56:53;13.15;;;4.53;;
84725;SDS011;74945;43.124;0.104;2023-12-29T08:59:18;10.07;;;4.53;;
84725;SDS011;74945;43.124;0.104;2023-12-29T09:01:44;13.35;;;5.63;;
84725;SDS011;74945;43.124;0.104;2023-12-29T09:04:09;11.73;;;4.93;;
84725;SDS011;74945;43.124;0.104;2023-12-29T09:06:34;12.57;;;5.20;;
84725;SDS011;74945;43.124;0.104;2023-12-29T09:09:00;12.80;;;5.00;;
84725;SDS011;74945;43.124;0.104;2023-12-29T09:11:25;12.00;;;5.10;;
84725;SDS011;74945;43.124;0.104;2023-12-29T09:13:51;11.82;;;5.18;;
84725;SDS011;74945;43.124;0.104;2023-12-29T09:16:17;10.50;;;5.25;;
84725;SDS011;74945;43.124;0.104;2023-12-29T09:18:42;9.90;;;5.00;;
84725;SDS011;74945;43.124;0.104;2023-12-29T09:21:08;13.80;;;5.70;;
84725;SDS011;74945;43.124;0.104;2023-12-29T09:23:33;21.35;;;5.75;;
84725;SDS011;74945;43.124;0.104;2023-12-29T09:25:59;13.30;;;5.40;;
84725;SDS011;74945;43.124;0.104;2023-12-29T09:28:24;17.23;;;6.25;;
84725;SDS011;74945;43.124;0.104;2023-12-29T09:30:50;15.63;;;6.22;;
84725;SDS011;74945;43.124;0.104;2023-12-29T09:33:15;15.65;;;6.30;;
84725;SDS011;74945;43.124;0.104;2023-12-29T09:35:40;20.23;;;6.43;;
84725;SDS011;74945;43.124;0.104;2023-12-29T09:38:06;19.05;;;5.82;;
84725;SDS011;74945;43.124;0.104;2023-12-29T09:40:31;12.35;;;5.53;;
84725;SDS011;74945;43.124;0.104;2023-12-29T09:42:57;18.60;;;5.63;;
84725;SDS011;74945;43.124;0.104;2023-12-29T09:45:23;14.30;;;6.28;;
84725;SDS011;74945;43.124;0.104;2023-12-29T09:47:50;13.77;;;6.50;;
84725;SDS011;74945;43.124;0.104;2023-12-29T09:50:17;23.45;;;6.50;;
84725;SDS011;74945;43.124;0.104;2023-12-29T09:52:43;11.77;;;6.15;;
84725;SDS011;74945;43.124;0.104;2023-12-29T09:55:09;18.52;;;6.07;;
84725;SDS011;74945;43.124;0.104;2023-12-29T09:57:36;13.63;;;6.38;;
84725;SDS011;74945;43.124;0.104;2023-12-29T10:00:02;14.13;;;5.90;;
84725;SDS011;74945;43.124;0.104;2023-12-29T10:02:28;12.75;;;6.63;;
84725;SDS011;74945;43.124;0.104;2023-12-29T10:04:55;14.48;;;6.45;;
84725;SDS011;74945;43.124;0.104;2023-12-29T10:07:24;13.48;;;6.18;;
84725;SDS011;74945;43.124;0.104;2023-12-29T10:09:57;13.15;;;6.32;;
84725;SDS011;74945;43.124;0.104;2023-12-29T10:12:27;13.40;;;6.22;;
84725;SDS011;74945;43.124;0.104;2023-12-29T10:17:36;16.30;;;6.95;;
84725;SDS011;74945;43.124;0.104;2023-12-29T10:22:41;12.90;;;6.38;;
84725;SDS011;74945;43.124;0.104;2023-12-29T10:25:10;12.35;;;6.57;;
84725;SDS011;74945;43.124;0.104;2023-12-29T10:27:35;12.40;;;6.38;;
84725;SDS011;74945;43.124;0.104;2023-12-29T10:30:00;12.60;;;6.32;;
84725;SDS011;74945;43.124;0.104;2023-12-29T10:32:26;13.88;;;6.30;;
84725;SDS011;74945;43.124;0.104;2023-12-29T10:35:07;11.82;;;6.05;;
84725;SDS011;74945;43.124;0.104;2023-12-29T10:37:34;12.15;;;6.20;;
84725;SDS011;74945;43.124;0.104;2023-12-29T10:39:59;12.25;;;6.20;;
84725;SDS011;74945;43.124;0.104;2023-12-29T10:42:26;11.88;;;6.88;;
84725;SDS011;74945;43.124;0.104;2023-12-29T10:45:04;14.35;;;6.65;;
84725;SDS011;74945;43.124;0.104;2023-12-29T10:47:30;11.27;;;5.90;;
84725;SDS011;74945;43.124;0.104;2023-12-29T10:49:58;11.63;;;5.50;;
84725;SDS011;74945;43.124;0.104;2023-12-29T10:52:24;13.70;;;5.97;;
84725;SDS011;74945;43.124;0.104;2023-12-29T10:54:49;10.88;;;5.95;;
84725;SDS011;74945;43.124;0.104;2023-12-29T10:57:15;11.80;;;5.60;;
84725;SDS011;74945;43.124;0.104;2023-12-29T10:59:40;10.60;;;5.47;;
84725;SDS011;74945;43.124;0.104;2023-12-29T11:02:06;11.80;;;6.03;;
84725;SDS011;74945;43.124;0.104;2023-12-29T11:04:33;9.38;;;5.43;;
84725;SDS011;74945;43.124;0.104;2023-12-29T11:06:59;14.43;;;5.80;;
84725;SDS011;74945;43.124;0.104;2023-12-29T11:09:31;11.70;;;5.90;;
84725;SDS011;74945;43.124;0.104;2023-12-29T11:12:00;9.48;;;5.22;;
84725;SDS011;74945;43.124;0.104;2023-12-29T11:14:29;14.45;;;6.30;;
84725;SDS011;74945;43.124;0.104;2023-12-29T11:16:56;9.70;;;5.30;;
84725;SDS011;74945;43.124;0.104;2023-12-29T11:19:22;11.57;;;5.70;;
84725;SDS011;74945;43.124;0.104;2023-12-29T11:21:54;11.13;;;5.22;;
84725;SDS011;74945;43.124;0.104;2023-12-29T11:24:21;10.48;;;5.13;;
84725;SDS011;74945;43.124;0.104;2023-12-29T11:26:49;12.38;;;5.78;;
84725;SDS011;74945;43.124;0.104;2023-12-29T11:29:15;11.25;;;5.28;;
84725;SDS011;74945;43.124;0.104;2023-12-29T11:31:41;12.20;;;5.35;;
84725;SDS011;74945;43.124;0.104;2023-12-29T11:34:19;8.85;;;5.07;;
84725;SDS011;74945;43.124;0.104;2023-12-29T11:36:49;11.55;;;5.38;;
84725;SDS011;74945;43.124;0.104;2023-12-29T11:39:27;9.27;;;5.07;;
84725;SDS011;74945;43.124;0.104;2023-12-29T11:42:12;11.90;;;4.97;;
84725;SDS011;74945;43.124;0.104;2023-12-29T11:44:42;9.68;;;4.95;;
84725;SDS011;74945;43.124;0.104;2023-12-29T11:47:34;14.23;;;5.45;;
84725;SDS011;74945;43.124;0.104;2023-12-29T11:50:01;11.23;;;5.05;;
84725;SDS011;74945;43.124;0.104;2023-12-29T11:52:36;7.72;;;4.80;;
84725;SDS011;74945;43.124;0.104;2023-12-29T11:55:12;8.45;;;4.50;;
84725;SDS011;74945;43.124;0.104;2023-12-29T11:57:39;7.93;;;5.00;;
84725;SDS011;74945;43.124;0.104;2023-12-29T12:00:06;8.52;;;4.90;;
84725;SDS011;74945;43.124;0.104;2023-12-29T12:02:31;8.57;;;4.68;;
84725;SDS011;74945;43.124;0.104;2023-12-29T12:04:57;10.55;;;4.82;;
84725;SDS011;74945;43.124;0.104;2023-12-29T12:09:51;9.18;;;5.03;;
84725;SDS011;74945;43.124;0.104;2023-12-29T12:15:04;10.38;;;4.97;;
84725;SDS011;74945;43.124;0.104;2023-12-29T12:17:59;9.32;;;4.72;;
84725;SDS011;74945;43.124;0.104;2023-12-29T12:20:25;9.77;;;5.10;;
84725;SDS011;74945;43.124;0.104;2023-12-29T12:25:25;8.57;;;4.32;;
84725;SDS011;74945;43.124;0.104;2023-12-29T12:27:53;6.72;;;4.20;;
84725;SDS011;74945;43.124;0.104;2023-12-29T12:30:18;9.75;;;4.90;;
84725;SDS011;74945;43.124;0.104;2023-12-29T12:32:44;9.18;;;4.45;;
84725;SDS011;74945;43.124;0.104;2023-12-29T12:35:13;11.13;;;5.28;;
84725;SDS011;74945;43.124;0.104;2023-12-29T12:37:41;8.82;;;5.10;;
84725;SDS011;74945;43.124;0.104;2023-12-29T12:40:06;8.32;;;4.90;;
84725;SDS011;74945;43.124;0.104;2023-12-29T12:42:33;7.82;;;4.47;;
84725;SDS011;74945;43.124;0.104;2023-12-29T12:45:06;7.85;;;4.47;;
84725;SDS011;74945;43.124;0.104;2023-12-29T12:47:37;7.53;;;4.43;;
84725;SDS011;74945;43.124;0.104;2023-12-29T12:50:07;8.07;;;4.28;;
84725;SDS011;74945;43.124;0.104;2023-12-29T12:52:35;7.40;;;4.70;;
84725;SDS011;74945;43.124;0.104;2023-12-29T12:55:01;8.68;;;4.50;;
84725;SDS011;74945;43.124;0.104;2023-12-29T12:57:27;7.40;;;4.38;;
84725;SDS011;74945;43.124;0.104;2023-12-29T12:59:53;8.70;;;4.38;;
84725;SDS011;74945;43.124;0.104;2023-12-29T13:02:18;5.57;;;4.03;;
84725;SDS011;74945;43.124;0.104;2023-12-29T13:04:45;9.00;;;4.30;;
84725;SDS011;74945;43.124;0.104;2023-12-29T13:07:10;8.02;;;4.55;;
84725;SDS011;74945;43.124;0.104;2023-12-29T13:09:40;7.38;;;4.25;;
84725;SDS011;74945;43.124;0.104;2023-12-29T13:12:11;7.18;;;4.25;;
84725;SDS011;74945;43.124;0.104;2023-12-29T13:14:37;9.00;;;4.30;;
84725;SDS011;74945;43.124;0.104;2023-12-29T13:17:10;7.25;;;3.92;;
84725;SDS011;74945;43.124;0.104;2023-12-29T13:19:36;8.65;;;4.30;;
84725;SDS011;74945;43.124;0.104;2023-12-29T13:22:05;7.45;;;4.18;;
84725;SDS011;74945;43.124;0.104;2023-12-29T13:24:32;8.88;;;4.13;;
84725;SDS011;74945;43.124;0.104;2023-12-29T13:27:02;10.60;;;4.15;;
84725;SDS011;74945;43.124;0.104;2023-12-29T13:29:29;8.57;;;3.80;;
84725;SDS011;74945;43.124;0.104;2023-12-29T13:31:58;7.22;;;3.60;;
84725;SDS011;74945;43.124;0.104;2023-12-29T13:34:37;7.22;;;3.75;;
84725;SDS011;74945;43.124;0.104;2023-12-29T13:37:42;8.20;;;3.72;;
84725;SDS011;74945;43.124;0.104;2023-12-29T13:40:03;6.45;;;3.90;;
84725;SDS011;74945;43.124;0.104;2023-12-29T13:42:34;9.20;;;4.07;;
84725;SDS011;74945;43.124;0.104;2023-12-29T13:45:00;7.15;;;4.53;;
84725;SDS011;74945;43.124;0.104;2023-12-29T13:47:26;7.40;;;4.55;;
84725;SDS011;74945;43.124;0.104;2023-12-29T13:49:52;12.23;;;6.75;;
84725;SDS011;74945;43.124;0.104;2023-12-29T13:52:17;10.52;;;7.60;;
84725;SDS011;74945;43.124;0.104;2023-12-29T13:54:44;12.77;;;8.68;;
84725;SDS011;74945;43.124;0.104;2023-12-29T13:57:09;14.93;;;9.40;;
84725;SDS011;74945;43.124;0.104;2023-12-29T13:59:34;13.88;;;10.38;;
84725;SDS011;74945;43.124;0.104;2023-12-29T14:02:15;18.23;;;10.88;;
84725;SDS011;74945;43.124;0.104;2023-12-29T14:04:46;15.88;;;12.00;;
84725;SDS011;74945;43.124;0.104;2023-12-29T14:07:11;17.77;;;13.10;;
84725;SDS011;74945;43.124;0.104;2023-12-29T14:09:37;20.23;;;13.20;;
84725;SDS011;74945;43.124;0.104;2023-12-29T14:12:02;21.52;;;14.27;;
84725;SDS011;74945;43.124;0.104;2023-12-29T14:14:28;21.98;;;15.07;;
84725;SDS011;74945;43.124;0.104;2023-12-29T14:16:53;21.10;;;15.85;;
84725;SDS011;74945;43.124;0.104;2023-12-29T14:19:19;22.65;;;16.77;;
84725;SDS011;74945;43.124;0.104;2023-12-29T14:21:45;24.95;;;17.77;;
84725;SDS011;74945;43.124;0.104;2023-12-29T14:24:14;23.48;;;17.40;;
84725;SDS011;74945;43.124;0.104;2023-12-29T14:29:17;25.15;;;18.27;;
84725;SDS011;74945;43.124;0.104;2023-12-29T14:31:43;22.65;;;17.27;;
84725;SDS011;74945;43.124;0.104;2023-12-29T14:34:10;23.05;;;17.88;;
84725;SDS011;74945;43.124;0.104;2023-12-29T14:36:36;22.30;;;16.27;;
84725;SDS011;74945;43.124;0.104;2023-12-29T14:39:03;21.75;;;16.55;;
84725;SDS011;74945;43.124;0.104;2023-12-29T14:41:29;22.10;;;16.92;;
84725;SDS011;74945;43.124;0.104;2023-12-29T14:43:54;23.58;;;16.65;;
84725;SDS011;74945;43.124;0.104;2023-12-29T14:46:20;22.52;;;16.70;;
84725;SDS011;74945;43.124;0.104;2023-12-29T14:48:45;22.55;;;16.38;;
84725;SDS011;74945;43.124;0.104;2023-12-29T14:51:11;22.67;;;16.27;;
84725;SDS011;74945;43.124;0.104;2023-12-29T14:53:37;19.65;;;15.70;;
84725;SDS011;74945;43.124;0.104;2023-12-29T14:56:03;20.33;;;15.50;;
84725;SDS011;74945;43.124;0.104;2023-12-29T14:58:29;19.13;;;15.45;;
84725;SDS011;74945;43.124;0.104;2023-12-29T15:00:55;19.75;;;14.95;;